Time;durP1;ratioP1;P1;durP2;ratioP2;P2;SDS_P1;SDS_P2;PMS_P1;PMS_P2;Temp;Humidity;BMP_temperature;BMP_pressure;BME280_temperature;BME280_humidity;BME280_pressure;Samples;Min_cycle;Max_cycle;Signal;HPM_P1;HPM_P2
2021/01/05 00:01:39;;;;;;;14.80;6.90;;;2.70;99.90;;;;;;4994171;28;20077;-57
2021/01/05 00:04:05;;;;;;;14.35;7.18;;;2.70;99.90;;;;;;4993923;28;20042;-58
2021/01/05 00:06:31;;;;;;;14.65;7.60;;;2.70;99.90;;;;;;4993981;28;20031;-58
2021/01/05 00:08:57;;;;;;;15.43;8.07;;;2.70;99.90;;;;;;4994279;28;20052;-58
2021/01/05 00:11:22;;;;;;;21.00;8.00;;;2.60;99.90;;;;;;4993966;28;20069;-58
2021/01/05 00:13:48;;;;;;;16.77;7.78;;;2.60;99.90;;;;;;4994285;28;20038;-59
2021/01/05 00:16:14;;;;;;;15.55;7.32;;;2.60;99.90;;;;;;4993825;28;20030;-56
2021/01/05 00:18:40;;;;;;;16.23;8.10;;;2.50;99.90;;;;;;4993963;28;20073;-57
2021/01/05 00:21:06;;;;;;;16.58;7.40;;;2.60;99.90;;;;;;4993940;28;20026;-58
2021/01/05 00:23:32;;;;;;;13.95;7.97;;;2.60;99.90;;;;;;4993805;28;20042;-58
2021/01/05 00:25:58;;;;;;;15.88;7.65;;;2.60;99.90;;;;;;4993659;28;20061;-58
2021/01/05 00:28:24;;;;;;;18.02;8.25;;;2.60;99.90;;;;;;4993891;28;20030;-58
2021/01/05 00:30:50;;;;;;;15.18;8.00;;;2.50;99.90;;;;;;4993611;28;20042;-59
2021/01/05 00:33:16;;;;;;;16.20;7.97;;;2.60;99.90;;;;;;4993516;28;20034;-57
2021/01/05 00:35:42;;;;;;;18.48;8.52;;;2.50;99.90;;;;;;4993610;28;20044;-57
2021/01/05 00:38:11;;;;;;;13.10;6.95;;;2.50;99.90;;;;;;4993637;28;20109;-57
2021/01/05 00:40:37;;;;;;;19.63;8.60;;;2.50;99.90;;;;;;4993502;28;20060;-58
2021/01/05 00:43:04;;;;;;;17.20;8.20;;;2.60;99.90;;;;;;4993622;28;20034;-58
2021/01/05 00:45:36;;;;;;;16.30;8.73;;;2.50;99.90;;;;;;4993139;28;20034;-57
2021/01/05 00:48:04;;;;;;;18.92;8.48;;;2.60;99.90;;;;;;4993408;28;20038;-57
2021/01/05 00:50:30;;;;;;;17.25;8.50;;;2.60;99.90;;;;;;4993251;28;20038;-57
2021/01/05 00:52:56;;;;;;;16.45;8.07;;;2.60;99.90;;;;;;4993331;28;20037;-57
2021/01/05 00:55:22;;;;;;;15.70;8.27;;;2.70;99.90;;;;;;4993152;28;20034;-58
2021/01/05 00:57:48;;;;;;;16.17;7.97;;;2.70;99.90;;;;;;4993210;28;20027;-58
2021/01/05 01:00:23;;;;;;;15.23;7.80;;;2.70;99.90;;;;;;4992880;28;20030;-55
2021/01/05 01:02:50;;;;;;;18.17;8.50;;;2.80;99.90;;;;;;4993071;28;20034;-58
2021/01/05 01:05:18;;;;;;;15.52;7.47;;;2.70;99.90;;;;;;4992959;28;20073;-59
2021/01/05 01:07:44;;;;;;;16.13;6.90;;;2.60;99.90;;;;;;4993330;28;20037;-58
2021/01/05 01:10:11;;;;;;;14.82;7.43;;;2.60;99.90;;;;;;4992819;28;20030;-59
2021/01/05 01:12:37;;;;;;;15.95;8.30;;;2.60;99.90;;;;;;4993227;28;20030;-58
2021/01/05 01:15:05;;;;;;;17.30;8.88;;;2.50;99.90;;;;;;4992817;28;20073;-58
2021/01/05 01:17:31;;;;;;;18.77;8.52;;;2.50;99.90;;;;;;4992975;28;20034;-58
2021/01/05 01:19:57;;;;;;;18.13;8.40;;;2.50;99.90;;;;;;4992155;28;20105;-58
2021/01/05 01:22:24;;;;;;;17.70;8.52;;;2.60;99.90;;;;;;4992793;28;20116;-58
2021/01/05 01:24:50;;;;;;;21.35;8.70;;;2.60;99.90;;;;;;4991732;28;20050;-59
2021/01/05 01:27:16;;;;;;;20.20;9.02;;;2.70;99.90;;;;;;4992664;28;20027;-58
2021/01/05 01:29:42;;;;;;;18.33;9.55;;;2.60;99.90;;;;;;4992672;28;20064;-58
2021/01/05 01:32:09;;;;;;;19.55;8.70;;;2.50;99.90;;;;;;4992889;28;20496;-58
2021/01/05 01:34:34;;;;;;;17.85;8.93;;;2.50;99.90;;;;;;4992565;28;20027;-58
2021/01/05 01:37:08;;;;;;;17.85;9.13;;;2.50;99.90;;;;;;4991369;28;20022;-56
2021/01/05 01:39:35;;;;;;;15.10;7.78;;;2.50;99.90;;;;;;4992972;28;20026;-57
2021/01/05 01:42:05;;;;;;;18.08;8.68;;;2.50;99.90;;;;;;4992818;28;20038;-57
2021/01/05 01:44:38;;;;;;;20.77;8.38;;;2.50;99.90;;;;;;4992638;28;20037;-57
2021/01/05 01:47:45;;;;;;;16.60;8.70;;;2.60;99.90;;;;;;4992566;28;20023;-59
2021/01/05 01:50:22;;;;;;;22.27;8.85;;;2.60;99.90;;;;;;4990941;28;20066;-59
2021/01/05 01:53:02;;;;;;;15.77;8.40;;;2.60;99.90;;;;;;4991534;28;20030;-58
2021/01/05 01:56:13;;;;;;;19.10;9.20;;;2.60;99.90;;;;;;4992438;28;20030;-58
2021/01/05 01:58:57;;;;;;;15.88;8.55;;;2.50;99.90;;;;;;4988319;28;20288;-59
2021/01/05 02:01:46;;;;;;;17.65;8.65;;;2.50;99.90;;;;;;4991141;28;20129;-59
2021/01/05 02:04:52;;;;;;;17.60;8.85;;;2.50;99.90;;;;;;4992522;28;20038;-58
2021/01/05 02:07:43;;;;;;;17.80;8.43;;;2.50;99.90;;;;;;4992351;28;20089;-59
2021/01/05 02:10:44;;;;;;;17.88;9.07;;;2.60;99.90;;;;;;4992681;28;20039;-59
2021/01/05 02:13:37;;;;;;;15.30;8.67;;;2.50;99.90;;;;;;4992376;28;20053;-59
2021/01/05 02:16:20;;;;;;;18.42;9.02;;;2.50;99.90;;;;;;4992634;28;20289;-57
2021/01/05 02:19:07;;;;;;;18.02;8.88;;;2.50;99.90;;;;;;4992396;28;20130;-58
2021/01/05 02:21:43;;;;;;;16.20;8.13;;;2.50;99.90;;;;;;4992439;28;20057;-59
2021/01/05 02:24:38;;;;;;;18.98;8.85;;;2.50;99.90;;;;;;4992024;28;20065;-59
2021/01/05 02:27:10;;;;;;;16.42;8.75;;;2.50;99.90;;;;;;4990079;28;20047;-58
2021/01/05 02:30:01;;;;;;;17.50;8.40;;;2.50;99.90;;;;;;4992447;28;20109;-58
2021/01/05 02:32:43;;;;;;;17.00;8.27;;;2.50;99.90;;;;;;4994866;28;20033;-59
2021/01/05 02:36:11;;;;;;;20.85;8.65;;;2.50;99.90;;;;;;4996180;28;20062;-59
2021/01/05 02:38:43;;;;;;;18.67;8.55;;;2.50;99.90;;;;;;4995611;28;20073;-59
2021/01/05 02:41:40;;;;;;;16.17;7.90;;;2.50;99.90;;;;;;4995958;28;20030;-58
2021/01/05 02:44:31;;;;;;;17.95;8.80;;;2.40;99.90;;;;;;4995657;28;20117;-58
2021/01/05 02:47:38;;;;;;;20.85;9.77;;;2.40;99.90;;;;;;4994675;28;20113;-58
2021/01/05 02:51:10;;;;;;;17.60;8.45;;;2.40;99.90;;;;;;4995565;28;20038;-59
2021/01/05 02:53:48;;;;;;;;;;;2.50;99.90;;;;;;4994445;28;20046;-57
2021/01/05 02:57:06;;;;;;;16.95;8.18;;;2.50;99.90;;;;;;4995606;28;19968;-57
2021/01/05 03:00:19;;;;;;;17.23;8.75;;;2.50;99.90;;;;;;4995243;28;20037;-58
2021/01/05 03:03:18;;;;;;;19.33;10.35;;;2.50;99.90;;;;;;4995245;28;20030;-59
2021/01/05 03:05:49;;;;;;;20.55;9.18;;;2.30;99.90;;;;;;4994390;28;20034;-59
2021/01/05 03:08:26;;;;;;;19.80;8.93;;;2.30;99.90;;;;;;4995447;28;20033;-59
2021/01/05 03:11:09;;;;;;;19.40;8.98;;;2.40;99.90;;;;;;4994086;28;20038;-57
2021/01/05 03:13:55;;;;;;;19.00;8.88;;;2.40;99.90;;;;;;4993764;28;20022;-58
2021/01/05 03:16:36;;;;;;;18.38;8.05;;;2.40;99.90;;;;;;4995056;28;20031;-58
2021/01/05 03:19:33;;;;;;;18.70;8.45;;;2.50;99.90;;;;;;4993789;28;20117;-59
2021/01/05 03:22:06;;;;;;;18.90;9.73;;;2.50;99.90;;;;;;4993525;28;20049;-58
2021/01/05 03:24:34;;;;;;;17.85;9.05;;;2.50;99.90;;;;;;4994621;28;20058;-59
2021/01/05 03:27:01;;;;;;;19.35;8.63;;;2.60;99.90;;;;;;4993978;28;20084;-56
2021/01/05 03:29:27;;;;;;;19.83;9.02;;;2.60;99.90;;;;;;4993692;28;20038;-57
2021/01/05 03:32:08;;;;;;;19.23;9.43;;;2.50;99.90;;;;;;4993802;28;20026;-58
2021/01/05 03:34:34;;;;;;;21.60;9.65;;;2.60;99.90;;;;;;4993524;28;20034;-57
2021/01/05 03:37:00;;;;;;;21.60;8.93;;;2.60;99.90;;;;;;4994594;28;20038;-57
2021/01/05 03:39:26;;;;;;;17.52;9.13;;;2.40;99.90;;;;;;4994777;28;20041;-58
2021/01/05 03:41:53;;;;;;;24.45;9.98;;;2.30;99.90;;;;;;4993883;28;20030;-59
2021/01/05 03:44:19;;;;;;;19.95;9.60;;;2.40;99.90;;;;;;4994632;28;20038;-59
2021/01/05 03:46:45;;;;;;;19.98;9.07;;;2.40;99.90;;;;;;4994803;28;20038;-58
2021/01/05 03:49:10;;;;;;;20.85;9.05;;;2.40;99.90;;;;;;4994451;28;20039;-59
2021/01/05 03:51:36;;;;;;;20.33;9.68;;;2.30;99.90;;;;;;4994167;28;20037;-58
2021/01/05 03:54:03;;;;;;;21.33;10.07;;;2.40;99.90;;;;;;4994472;28;20392;-55
2021/01/05 03:56:29;;;;;;;20.30;9.13;;;2.40;99.90;;;;;;4994102;28;20058;-59
2021/01/05 03:58:54;;;;;;;21.35;9.43;;;2.20;99.90;;;;;;4994263;28;20038;-59
2021/01/05 04:01:20;;;;;;;19.35;9.73;;;2.20;99.90;;;;;;4992775;28;20391;-56
2021/01/05 04:03:46;;;;;;;20.52;9.65;;;2.30;99.90;;;;;;4994114;28;20041;-54
2021/01/05 04:06:12;;;;;;;22.42;10.70;;;2.30;99.90;;;;;;4994220;28;20364;-57
2021/01/05 04:08:39;;;;;;;25.15;9.77;;;2.30;99.90;;;;;;4994265;28;20089;-57
2021/01/05 04:11:05;;;;;;;19.55;9.95;;;2.30;99.90;;;;;;4994070;28;20125;-56
2021/01/05 04:13:31;;;;;;;21.83;9.00;;;2.30;99.90;;;;;;4993783;28;20054;-57
2021/01/05 04:15:57;;;;;;;22.60;10.07;;;2.30;99.90;;;;;;4993910;28;20034;-58
2021/01/05 04:18:23;;;;;;;19.65;8.95;;;2.30;99.90;;;;;;4993828;28;20391;-58
2021/01/05 04:20:50;;;;;;;22.50;9.02;;;2.30;99.90;;;;;;4993765;28;20042;-58
2021/01/05 04:23:16;;;;;;;23.38;10.10;;;2.30;99.90;;;;;;4993630;28;20046;-57
2021/01/05 04:25:42;;;;;;;22.25;10.25;;;2.40;99.90;;;;;;4993753;28;20030;-58
2021/01/05 04:28:08;;;;;;;16.73;8.65;;;2.40;99.90;;;;;;4993644;28;20039;-58
2021/01/05 04:30:37;;;;;;;19.60;9.60;;;2.30;99.90;;;;;;4993810;28;20460;-58
2021/01/05 04:33:08;;;;;;;18.45;8.13;;;2.20;99.90;;;;;;4992617;28;20061;-59
2021/01/05 04:35:34;;;;;;;22.85;10.25;;;2.30;99.90;;;;;;4993738;28;20030;-58
2021/01/05 04:38:01;;;;;;;22.10;8.68;;;2.20;99.90;;;;;;4993797;28;20105;-59
2021/01/05 04:40:39;;;;;;;21.63;8.75;;;2.30;99.90;;;;;;4993574;28;20026;-58
2021/01/05 04:43:34;;;;;;;20.70;10.27;;;2.20;99.90;;;;;;4992568;28;20030;-58
2021/01/05 04:46:15;;;;;;;17.38;8.32;;;2.30;99.90;;;;;;4993500;28;20113;-58
2021/01/05 04:49:32;;;;;;;20.25;8.65;;;2.40;99.90;;;;;;4992993;28;20034;-58
2021/01/05 04:52:07;;;;;;;17.52;8.57;;;2.30;99.90;;;;;;4971590;28;20043;-58
2021/01/05 04:55:26;;;;;;;19.15;8.93;;;2.40;99.90;;;;;;4971138;28;20099;-59
2021/01/05 04:58:22;;;;;;;19.75;7.82;;;2.50;99.90;;;;;;4940058;28;20038;-59
2021/01/05 05:00:49;;;;;;;20.63;9.55;;;2.50;99.90;;;;;;4990446;28;20174;-59
2021/01/05 05:03:35;;;;;;;23.55;10.23;;;2.50;99.90;;;;;;4974710;28;20090;-59
2021/01/05 05:06:22;;;;;;;20.00;9.07;;;2.40;99.90;;;;;;4990657;28;20033;-57
2021/01/05 05:09:15;;;;;;;20.30;9.05;;;2.40;99.90;;;;;;4990691;28;20605;-57
2021/01/05 05:12:28;;;;;;;18.67;8.73;;;2.40;99.90;;;;;;4990534;28;20089;-58
2021/01/05 05:15:17;;;;;;;20.23;10.32;;;2.30;99.90;;;;;;4976926;28;20066;-56
2021/01/05 05:18:06;;;;;;;24.65;10.55;;;2.30;99.90;;;;;;4990359;28;20038;-58
2021/01/05 05:20:54;;;;;;;18.15;9.13;;;2.40;99.90;;;;;;4990202;28;20121;-58
2021/01/05 05:23:52;;;;;;;19.35;8.82;;;2.50;99.90;;;;;;4992063;28;20038;-55
2021/01/05 05:26:55;;;;;;;21.92;10.27;;;2.40;99.90;;;;;;4992738;28;20026;-57
2021/01/05 05:29:49;;;;;;;20.38;9.32;;;2.30;99.90;;;;;;4992929;28;20039;-56
2021/01/05 05:32:47;;;;;;;18.25;9.38;;;2.40;99.90;;;;;;4992755;28;20125;-58
2021/01/05 05:36:02;;;;;;;19.67;9.77;;;2.50;99.90;;;;;;4991400;28;20038;-59
2021/01/05 05:38:58;;;;;;;17.33;8.68;;;2.60;99.90;;;;;;4991474;28;20026;-60
2021/01/05 05:41:57;;;;;;;18.98;8.48;;;2.60;99.90;;;;;;4992485;28;20039;-59
2021/01/05 05:44:31;;;;;;;19.73;8.63;;;2.60;99.90;;;;;;4992615;28;20042;-60
2021/01/05 05:47:05;;;;;;;21.42;9.25;;;2.50;99.90;;;;;;4992574;28;20038;-60
2021/01/05 05:49:59;;;;;;;20.70;8.60;;;2.40;99.90;;;;;;4991331;28;20030;-60
2021/01/05 05:53:05;;;;;;;19.15;9.00;;;2.50;99.90;;;;;;4991578;28;20022;-60
2021/01/05 05:56:00;;;;;;;16.42;7.95;;;2.40;99.90;;;;;;4989920;28;20046;-61
2021/01/05 05:58:38;;;;;;;22.17;9.10;;;2.40;99.90;;;;;;5006664;28;20039;-60
2021/01/05 06:01:16;;;;;;;21.63;9.10;;;2.40;99.90;;;;;;4991661;28;20117;-60
2021/01/05 06:03:43;;;;;;;19.63;9.55;;;2.30;99.90;;;;;;4991331;28;20027;-57
2021/01/05 06:06:09;;;;;;;16.95;7.57;;;2.30;99.90;;;;;;4995397;28;20038;-58
2021/01/05 06:08:35;;;;;;;18.38;8.70;;;2.30;99.90;;;;;;4996358;28;20030;-56
2021/01/05 06:11:02;;;;;;;19.48;8.82;;;2.40;99.90;;;;;;4996197;28;20034;-59
2021/01/05 06:13:31;;;;;;;20.38;8.65;;;2.30;99.90;;;;;;4996291;28;20026;-59
2021/01/05 06:15:57;;;;;;;19.13;8.52;;;2.30;99.90;;;;;;4996635;28;20054;-59
2021/01/05 06:18:23;;;;;;;18.13;8.38;;;2.40;99.90;;;;;;4996307;28;20030;-57
2021/01/05 06:20:49;;;;;;;20.02;8.70;;;2.40;99.90;;;;;;4995700;28;20089;-58
2021/01/05 06:23:18;;;;;;;18.02;7.93;;;2.40;99.90;;;;;;4996099;28;20113;-58
2021/01/05 06:25:47;;;;;;;23.38;9.60;;;2.40;99.90;;;;;;4994702;28;20042;-57
2021/01/05 06:28:14;;;;;;;20.17;8.13;;;2.40;99.90;;;;;;4996167;28;20034;-57
2021/01/05 06:30:40;;;;;;;19.83;8.57;;;2.40;99.90;;;;;;4995834;28;20046;-57
2021/01/05 06:33:06;;;;;;;16.30;8.27;;;2.40;99.90;;;;;;4995993;28;20077;-56
2021/01/05 06:35:32;;;;;;;19.05;9.02;;;2.40;99.90;;;;;;4995842;28;20042;-54
2021/01/05 06:37:58;;;;;;;17.75;8.55;;;2.40;99.90;;;;;;4995869;28;20026;-50
2021/01/05 06:40:27;;;;;;;17.38;8.60;;;2.40;99.90;;;;;;4995605;28;20037;-56
2021/01/05 06:42:54;;;;;;;20.23;10.05;;;2.40;99.90;;;;;;4995695;28;20026;-56
2021/01/05 06:45:29;;;;;;;17.10;7.50;;;2.40;99.90;;;;;;4995749;28;20062;-52
2021/01/05 06:47:57;;;;;;;16.27;8.50;;;2.40;99.90;;;;;;4995924;28;20027;-59
2021/01/05 06:50:27;;;;;;;15.40;8.13;;;2.30;99.90;;;;;;4995736;28;20117;-58
2021/01/05 06:52:53;;;;;;;19.27;8.38;;;2.40;99.90;;;;;;4995566;28;20042;-58
2021/01/05 06:55:20;;;;;;;18.48;8.60;;;2.40;99.90;;;;;;4995423;28;20049;-56
2021/01/05 06:57:46;;;;;;;20.13;8.10;;;2.50;99.90;;;;;;4994686;28;20038;-57
2021/01/05 07:00:24;;;;;;;14.43;8.10;;;2.40;99.90;;;;;;4994351;28;20034;-57
2021/01/05 07:02:50;;;;;;;19.13;8.50;;;2.40;99.90;;;;;;4994701;28;20035;-57
2021/01/05 07:05:17;;;;;;;23.77;9.50;;;2.30;99.90;;;;;;4994281;28;20034;-58
2021/01/05 07:07:44;;;;;;;22.92;9.73;;;2.40;99.90;;;;;;4994477;28;20068;-58
2021/01/05 07:10:12;;;;;;;20.27;7.72;;;2.40;99.90;;;;;;4994699;28;20031;-57
2021/01/05 07:12:38;;;;;;;19.70;8.30;;;2.40;99.90;;;;;;4994591;28;20034;-55
2021/01/05 07:15:07;;;;;;;18.55;8.10;;;2.40;99.90;;;;;;4995143;28;20041;-58
2021/01/05 07:17:34;;;;;;;17.95;8.25;;;2.50;99.90;;;;;;4994173;28;20042;-56
2021/01/05 07:20:00;;;;;;;17.15;8.25;;;2.50;99.90;;;;;;4994812;28;20029;-57
2021/01/05 07:22:26;;;;;;;22.65;8.90;;;2.50;99.90;;;;;;4994715;28;20038;-56
2021/01/05 07:24:52;;;;;;;18.63;7.82;;;2.60;99.90;;;;;;4994389;28;20054;-56
2021/01/05 07:27:19;;;;;;;20.45;8.60;;;2.60;99.90;;;;;;4994998;28;20054;-56
2021/01/05 07:29:44;;;;;;;17.88;8.30;;;2.40;99.90;;;;;;4994963;28;20081;-57
2021/01/05 07:32:10;;;;;;;15.80;7.53;;;2.40;99.90;;;;;;4994736;28;20031;-57
2021/01/05 07:34:39;;;;;;;20.98;8.73;;;2.40;99.90;;;;;;4994526;28;20038;-58
2021/01/05 07:37:13;;;;;;;17.25;8.20;;;2.40;99.90;;;;;;4994826;28;20202;-57
2021/01/05 07:39:39;;;;;;;16.95;7.57;;;2.40;99.90;;;;;;4993662;28;20113;-57
2021/01/05 07:42:23;;;;;;;20.38;8.95;;;2.40;99.90;;;;;;4994525;28;20034;-56
2021/01/05 07:44:55;;;;;;;17.10;7.88;;;2.50;99.90;;;;;;4994461;28;20053;-57
2021/01/05 07:47:32;;;;;;;20.88;9.02;;;2.50;99.90;;;;;;4994508;28;20092;-55
2021/01/05 07:50:00;;;;;;;18.10;8.05;;;2.50;99.90;;;;;;4993597;28;20092;-53
2021/01/05 07:52:39;;;;;;;20.30;7.85;;;2.60;99.90;;;;;;4994366;28;20026;-58
2021/01/05 07:55:23;;;;;;;21.38;8.85;;;2.60;99.90;;;;;;4994588;28;20058;-57
2021/01/05 07:57:53;;;;;;;16.77;8.00;;;2.60;99.90;;;;;;4981614;28;20077;-58
2021/01/05 08:00:28;;;;;;;23.60;10.68;;;2.60;99.90;;;;;;4984485;28;20042;-57
2021/01/05 08:02:56;;;;;;;18.95;8.57;;;2.50;99.90;;;;;;4985631;28;20076;-56
2021/01/05 08:05:26;;;;;;;18.38;7.57;;;2.50;99.90;;;;;;4973629;28;20034;-58
2021/01/05 08:07:53;;;;;;;18.08;8.38;;;2.50;99.90;;;;;;4974814;28;20030;-54
2021/01/05 08:10:23;;;;;;;22.83;8.80;;;2.50;99.90;;;;;;4981369;28;20042;-56
2021/01/05 08:12:50;;;;;;;22.60;9.57;;;2.60;99.90;;;;;;4984559;28;20093;-55
2021/01/05 08:15:20;;;;;;;21.15;9.40;;;2.70;99.90;;;;;;4994023;28;20044;-57
2021/01/05 08:17:46;;;;;;;19.90;9.13;;;2.70;99.90;;;;;;4981515;28;20039;-57
2021/01/05 08:20:17;;;;;;;21.17;8.65;;;2.70;99.90;;;;;;4985852;28;20070;-59
2021/01/05 08:22:43;;;;;;;20.17;8.05;;;2.80;99.90;;;;;;4990250;28;20041;-60
2021/01/05 08:25:09;;;;;;;18.90;8.00;;;2.80;99.90;;;;;;4992290;28;20133;-63
2021/01/05 08:27:35;;;;;;;14.15;8.07;;;2.80;99.90;;;;;;4993470;28;20073;-57
2021/01/05 08:30:02;;;;;;;19.05;8.18;;;2.90;99.90;;;;;;4993380;28;20418;-59
2021/01/05 08:32:28;;;;;;;17.80;8.60;;;2.80;99.90;;;;;;4993967;28;20106;-60
2021/01/05 08:34:54;;;;;;;19.27;8.48;;;2.80;99.90;;;;;;4993612;28;20070;-59
2021/01/05 08:37:20;;;;;;;16.55;8.10;;;2.80;99.90;;;;;;4991554;28;20068;-60
2021/01/05 08:39:46;;;;;;;15.73;8.18;;;2.80;99.90;;;;;;4993494;28;20053;-59
2021/01/05 08:42:12;;;;;;;13.52;7.18;;;2.90;99.90;;;;;;5004610;28;20088;-59
2021/01/05 08:44:38;;;;;;;18.73;8.68;;;2.90;99.90;;;;;;5002077;28;20030;-59
2021/01/05 08:47:05;;;;;;;18.88;8.15;;;2.80;99.90;;;;;;4993407;28;20049;-56
2021/01/05 08:49:33;;;;;;;15.75;8.57;;;2.80;99.90;;;;;;4993079;28;20092;-58
2021/01/05 08:51:59;;;;;;;19.23;8.35;;;2.90;99.90;;;;;;4993339;28;20031;-56
2021/01/05 08:54:26;;;;;;;16.60;7.18;;;2.90;99.90;;;;;;4993372;28;20030;-55
2021/01/05 08:57:00;;;;;;;15.48;7.60;;;3.00;99.90;;;;;;4993068;28;20027;-57
2021/01/05 08:59:27;;;;;;;14.52;7.10;;;3.00;99.90;;;;;;4993008;28;20142;-59
2021/01/05 09:01:53;;;;;;;14.10;7.60;;;3.00;99.90;;;;;;4993247;28;20085;-59
2021/01/05 09:04:19;;;;;;;17.75;8.27;;;3.10;99.90;;;;;;4993148;28;20034;-59
2021/01/05 09:06:49;;;;;;;19.48;8.35;;;3.10;99.90;;;;;;4993010;28;20030;-58
2021/01/05 09:09:16;;;;;;;28.58;11.95;;;3.10;99.90;;;;;;4993199;28;20058;-58
2021/01/05 09:11:42;;;;;;;17.60;7.50;;;3.20;99.90;;;;;;4992882;28;20034;-58
2021/01/05 09:14:08;;;;;;;21.55;9.88;;;3.20;99.90;;;;;;4993274;28;20041;-55
2021/01/05 09:16:34;;;;;;;17.30;7.47;;;3.30;99.90;;;;;;4993068;28;20034;-57
2021/01/05 09:19:00;;;;;;;14.18;7.43;;;3.20;99.90;;;;;;4993025;28;20100;-58
2021/01/05 09:21:29;;;;;;;13.45;6.72;;;3.30;99.90;;;;;;4993028;28;20101;-59
2021/01/05 09:23:59;;;;;;;17.10;7.35;;;3.30;99.90;;;;;;4992424;28;20046;-58
2021/01/05 09:26:35;;;;;;;16.52;6.82;;;3.10;99.90;;;;;;4992884;28;20034;-56
2021/01/05 09:29:04;;;;;;;14.85;6.47;;;3.00;99.90;;;;;;4992972;28;20037;-57
2021/01/05 09:31:30;;;;;;;13.73;7.55;;;3.00;99.90;;;;;;4992864;28;20038;-57
2021/01/05 09:33:56;;;;;;;15.60;7.47;;;3.10;99.90;;;;;;4992839;28;20026;-53
2021/01/05 09:36:35;;;;;;;15.52;6.82;;;3.10;99.90;;;;;;4992907;28;20057;-57
2021/01/05 09:39:06;;;;;;;15.30;7.10;;;3.10;99.90;;;;;;4991160;28;20035;-58
2021/01/05 09:41:46;;;;;;;17.73;8.30;;;3.20;99.90;;;;;;4992606;28;20034;-58
2021/01/05 09:44:12;;;;;;;16.27;8.18;;;3.30;99.90;;;;;;4991280;28;20351;-59
2021/01/05 09:46:39;;;;;;;20.48;7.68;;;3.40;99.90;;;;;;4992414;28;20026;-58
2021/01/05 09:49:13;;;;;;;18.27;7.63;;;3.50;99.90;;;;;;4992519;28;20069;-58
2021/01/05 09:51:44;;;;;;;16.05;7.43;;;3.60;99.90;;;;;;4992709;28;20023;-54
2021/01/05 09:54:13;;;;;;;17.05;7.90;;;3.60;99.90;;;;;;4992435;28;20037;-54
2021/01/05 09:56:39;;;;;;;14.52;7.30;;;3.70;99.90;;;;;;4992696;28;20034;-57
2021/01/05 09:59:05;;;;;;;14.00;6.65;;;3.30;99.90;;;;;;4992202;28;20030;-56
2021/01/05 10:01:33;;;;;;;18.23;7.20;;;3.30;99.90;;;;;;4992608;28;20049;-55
2021/01/05 10:03:59;;;;;;;15.30;8.15;;;3.40;99.90;;;;;;4992443;28;20038;-54
2021/01/05 10:06:34;;;;;;;16.23;8.48;;;3.50;99.90;;;;;;4992081;28;20052;-56
2021/01/05 10:09:07;;;;;;;16.92;8.13;;;3.60;99.90;;;;;;4992149;28;20077;-54
2021/01/05 10:11:36;;;;;;;16.77;7.53;;;3.70;99.90;;;;;;4992515;28;20042;-57
2021/01/05 10:14:04;;;;;;;15.32;7.57;;;3.70;99.90;;;;;;4992384;28;20177;-55
2021/01/05 10:16:30;;;;;;;16.58;7.38;;;3.70;99.90;;;;;;4992017;28;20080;-58
2021/01/05 10:18:57;;;;;;;15.57;7.43;;;3.70;99.90;;;;;;4991976;28;20072;-56
2021/01/05 10:21:39;;;;;;;15.50;7.75;;;3.60;99.90;;;;;;4992262;28;20026;-58
2021/01/05 10:24:07;;;;;;;23.20;10.10;;;3.70;99.90;;;;;;4991715;28;20077;-57
2021/01/05 10:26:33;;;;;;;17.30;7.95;;;3.60;99.90;;;;;;4992216;28;20085;-57
2021/01/05 10:29:00;;;;;;;16.17;7.68;;;3.70;99.90;;;;;;4992180;28;20050;-58
2021/01/05 10:31:48;;;;;;;16.15;7.65;;;3.80;99.90;;;;;;4991998;28;20041;-57
2021/01/05 10:34:19;;;;;;;16.58;8.27;;;3.80;99.90;;;;;;4990775;28;20038;-58
2021/01/05 10:36:57;;;;;;;19.42;7.10;;;3.70;99.90;;;;;;4991933;28;20085;-56
2021/01/05 10:39:26;;;;;;;17.15;8.32;;;3.80;99.90;;;;;;4990974;28;20038;-57
2021/01/05 10:41:52;;;;;;;16.13;7.40;;;3.80;99.90;;;;;;4992039;28;20034;-58
2021/01/05 10:44:22;;;;;;;15.98;8.50;;;3.90;99.90;;;;;;4992091;28;20101;-58
2021/01/05 10:46:48;;;;;;;17.90;7.68;;;4.00;99.90;;;;;;4991002;28;20041;-58
2021/01/05 10:49:15;;;;;;;16.50;7.65;;;3.90;99.90;;;;;;4992249;28;20034;-57
2021/01/05 10:51:50;;;;;;;14.82;7.53;;;3.90;99.90;;;;;;4990956;28;20034;-59
2021/01/05 10:54:22;;;;;;;17.90;8.82;;;4.00;99.90;;;;;;4995481;28;20077;-58
2021/01/05 10:56:59;;;;;;;15.40;8.05;;;4.00;99.90;;;;;;4995339;28;20078;-54
2021/01/05 10:59:27;;;;;;;19.08;8.88;;;4.00;99.90;;;;;;4995284;28;20037;-57
2021/01/05 11:01:57;;;;;;;20.98;8.10;;;4.10;99.90;;;;;;4994344;28;20176;-59
2021/01/05 11:04:24;;;;;;;15.52;8.13;;;4.00;99.90;;;;;;4995434;28;20034;-57
2021/01/05 11:06:56;;;;;;;18.27;8.60;;;3.90;99.90;;;;;;4994903;28;20026;-58
2021/01/05 11:09:23;;;;;;;17.95;7.78;;;3.80;99.90;;;;;;4995261;28;20031;-60
2021/01/05 11:12:25;;;;;;;18.42;8.27;;;3.90;99.90;;;;;;4995191;28;20027;-59
2021/01/05 11:14:51;;;;;;;17.05;7.68;;;4.00;99.90;;;;;;4994848;28;20026;-59
2021/01/05 11:17:18;;;;;;;14.55;7.05;;;3.90;99.90;;;;;;4995237;28;20026;-59
2021/01/05 11:19:45;;;;;;;15.98;7.63;;;4.00;99.90;;;;;;4994903;28;20038;-58
2021/01/05 11:22:18;;;;;;;15.10;7.90;;;4.10;99.90;;;;;;4995154;28;20034;-58
2021/01/05 11:24:45;;;;;;;19.50;8.88;;;4.10;99.90;;;;;;4994651;28;20046;-58
2021/01/05 11:27:14;;;;;;;15.00;7.53;;;4.20;99.90;;;;;;4994937;28;20030;-60
2021/01/05 11:29:42;;;;;;;16.58;7.05;;;4.20;99.90;;;;;;4994853;28;20030;-60
2021/01/05 11:32:16;;;;;;;15.15;7.40;;;4.20;99.90;;;;;;4994794;28;20069;-60
2021/01/05 11:34:43;;;;;;;19.10;7.88;;;4.20;99.90;;;;;;4993479;28;20092;-60
2021/01/05 11:37:13;;;;;;;17.88;7.57;;;4.30;99.90;;;;;;4994662;28;20153;-60
2021/01/05 11:39:42;;;;;;;16.20;7.07;;;4.20;99.90;;;;;;4994867;28;20034;-60
2021/01/05 11:42:10;;;;;;;18.17;7.40;;;4.20;99.90;;;;;;4994690;28;20034;-60
2021/01/05 11:44:41;;;;;;;16.95;8.02;;;4.20;99.90;;;;;;4994363;28;20034;-58
2021/01/05 11:47:07;;;;;;;15.37;7.63;;;4.20;99.90;;;;;;4994317;28;20058;-62
2021/01/05 11:49:33;;;;;;;16.40;8.15;;;4.30;99.90;;;;;;4994288;28;20310;-57
2021/01/05 11:52:02;;;;;;;17.15;7.53;;;4.30;99.90;;;;;;4994067;28;20034;-58
2021/01/05 11:54:28;;;;;;;13.52;7.20;;;4.30;99.90;;;;;;4994131;28;20089;-59
2021/01/05 11:56:56;;;;;;;21.63;10.75;;;4.30;99.90;;;;;;4997374;28;20038;-59
2021/01/05 11:59:23;;;;;;;18.67;8.43;;;4.40;99.90;;;;;;5013443;28;20030;-59
2021/01/05 12:01:49;;;;;;;19.58;8.07;;;4.50;99.90;;;;;;5013659;28;20061;-59
2021/01/05 12:04:15;;;;;;;14.23;6.72;;;4.50;99.90;;;;;;5013421;28;20038;-58
2021/01/05 12:06:47;;;;;;;16.40;7.65;;;4.50;99.90;;;;;;5013480;28;20034;-56
2021/01/05 12:09:13;;;;;;;15.82;7.40;;;4.40;99.90;;;;;;5013679;28;20034;-55
2021/01/05 12:11:39;;;;;;;14.00;6.80;;;4.30;99.90;;;;;;5013692;28;20034;-59
2021/01/05 12:14:07;;;;;;;16.17;7.18;;;4.20;99.90;;;;;;5013296;28;20034;-57
2021/01/05 12:16:39;;;;;;;17.75;7.18;;;4.20;99.90;;;;;;5013602;28;20041;-59
2021/01/05 12:19:11;;;;;;;13.57;6.95;;;4.40;99.90;;;;;;5013368;28;20041;-59
2021/01/05 12:21:42;;;;;;;12.73;6.72;;;4.30;99.90;;;;;;4995524;28;20065;-57
2021/01/05 12:24:22;;;;;;;14.43;6.22;;;4.30;99.90;;;;;;4993565;28;20058;-59
2021/01/05 12:26:48;;;;;;;14.88;6.93;;;4.20;99.90;;;;;;4976756;28;20034;-59
2021/01/05 12:29:21;;;;;;;16.05;7.85;;;4.20;99.90;;;;;;4992513;28;20070;-58
2021/01/05 12:31:52;;;;;;;39.38;15.98;;;4.20;99.90;;;;;;4993599;28;20123;-59
2021/01/05 12:34:22;;;;;;;13.63;7.60;;;4.30;99.90;;;;;;4993786;28;20034;-58
2021/01/05 12:36:48;;;;;;;16.63;7.20;;;4.30;99.90;;;;;;4994128;28;20039;-59
2021/01/05 12:39:25;;;;;;;13.23;7.25;;;4.40;99.90;;;;;;4993277;28;20043;-59
2021/01/05 12:41:54;;;;;;;16.58;7.57;;;4.40;99.90;;;;;;4992457;28;20034;-59
2021/01/05 12:44:25;;;;;;;15.27;6.97;;;4.40;99.90;;;;;;4993538;28;20046;-58
2021/01/05 12:46:53;;;;;;;15.57;7.57;;;4.50;99.90;;;;;;4993619;28;20113;-57
2021/01/05 12:49:20;;;;;;;15.18;7.07;;;4.50;99.90;;;;;;4993427;28;20046;-59
2021/01/05 12:51:48;;;;;;;15.85;7.00;;;4.50;99.90;;;;;;4993143;28;20108;-59
2021/01/05 12:54:24;;;;;;;15.02;7.07;;;4.50;99.90;;;;;;4993268;28;20037;-58
2021/01/05 12:56:52;;;;;;;13.48;6.90;;;4.30;99.90;;;;;;4993078;28;20038;-58
2021/01/05 12:59:18;;;;;;;15.40;7.22;;;4.30;99.90;;;;;;4992905;28;20056;-58
2021/01/05 13:01:44;;;;;;;15.35;7.10;;;4.40;99.90;;;;;;4992571;28;20093;-58
2021/01/05 13:04:11;;;;;;;15.35;7.50;;;4.40;99.90;;;;;;4992990;28;20041;-59
2021/01/05 13:06:38;;;;;;;13.85;7.15;;;4.30;99.90;;;;;;4993115;28;20045;-59
2021/01/05 13:09:05;;;;;;;15.00;7.82;;;4.20;99.90;;;;;;4992661;28;20038;-58
2021/01/05 13:11:32;;;;;;;16.85;7.38;;;4.30;99.90;;;;;;4993059;28;20023;-59
2021/01/05 13:13:59;;;;;;;17.15;8.15;;;4.30;99.90;;;;;;4992628;28;20035;-59
2021/01/05 13:16:32;;;;;;;15.85;8.80;;;4.00;99.90;;;;;;4992404;28;20026;-58